Time;durP1;ratioP1;P1;durP2;ratioP2;P2;SDS_P1;SDS_P2;PMS_P1;PMS_P2;Temp;Humidity;BMP_temperature;BMP_pressure;BME280_temperature;BME280_humidity;BME280_pressure;Samples;Min_cycle;Max_cycle;Signal;HPM_P1;HPM_P2
2022/06/20 00:01:15;;;;;;;5.47;2.30;;;;;;;;;;5134702;28;20509;-68
2022/06/20 00:03:45;;;;;;;3.73;1.80;;;;;;;;;;5138293;27;20854;-69
2022/06/20 00:06:13;;;;;;;3.73;2.00;;;;;;;;;;5138280;27;20454;-68
2022/06/20 00:08:41;;;;;;;4.90;2.70;;;;;;;;;;5138461;27;20516;-68
2022/06/20 00:11:12;;;;;;;6.17;2.73;;;;;;;;;;5138552;27;20951;-69
2022/06/20 00:13:41;;;;;;;5.77;2.47;;;;;;;;;;5138472;27;20498;-69
2022/06/20 00:16:13;;;;;;;9.30;2.97;;;;;;;;;;5138584;27;20442;-69
2022/06/20 00:18:40;;;;;;;4.23;2.53;;;;;;;;;;5138603;27;20877;-69
2022/06/20 00:21:07;;;;;;;6.53;2.80;;;;;;;;;;5138723;27;20441;-69
2022/06/20 00:23:35;;;;;;;8.00;3.47;;;;;;;;;;5138473;27;20533;-69
2022/06/20 00:26:02;;;;;;;4.73;2.50;;;;;;;;;;5137874;27;20927;-69
2022/06/20 00:28:31;;;;;;;3.60;2.50;;;;;;;;;;5138248;27;20442;-69
2022/06/20 00:30:58;;;;;;;6.93;2.93;;;;;;;;;;5137851;27;20477;-69
2022/06/20 00:33:26;;;;;;;4.70;2.70;;;;;;;;;;5138033;27;20905;-69
2022/06/20 00:35:53;;;;;;;4.23;3.00;;;;;;;;;;5138013;27;20447;-69
2022/06/20 00:38:22;;;;;;;12.23;2.83;;;;;;;;;;5137757;27;20943;-69
2022/06/20 00:40:51;;;;;;;11.67;2.90;;;;;;;;;;5137626;27;20447;-69
2022/06/20 00:43:21;;;;;;;5.43;3.13;;;;;;;;;;5137652;27;20532;-69
2022/06/20 00:45:52;;;;;;;5.50;2.93;;;;;;;;;;5137798;27;20529;-69
2022/06/20 00:48:21;;;;;;;5.30;2.90;;;;;;;;;;5137869;27;20550;-69
2022/06/20 00:50:50;;;;;;;4.10;3.00;;;;;;;;;;5137878;27;20555;-69
2022/06/20 00:53:20;;;;;;;4.50;3.30;;;;;;;;;;5137652;27;20527;-69
2022/06/20 00:55:49;;;;;;;6.90;3.50;;;;;;;;;;5137782;27;20968;-69
2022/06/20 00:58:25;;;;;;;5.67;3.47;;;;;;;;;;5137631;27;20529;-69
2022/06/20 01:00:54;;;;;;;10.07;4.17;;;;;;;;;;5137669;27;20462;-69
2022/06/20 01:03:23;;;;;;;3.73;3.30;;;;;;;;;;5137216;27;20460;-69
2022/06/20 01:05:52;;;;;;;7.30;3.40;;;;;;;;;;5137246;27;21128;-70
2022/06/20 01:08:21;;;;;;;9.93;3.70;;;;;;;;;;5138278;27;20521;-69
2022/06/20 01:10:51;;;;;;;6.70;2.93;;;;;;;;;;5137800;27;20456;-69
2022/06/20 01:13:19;;;;;;;5.47;3.40;;;;;;;;;;5136498;27;20437;-69
2022/06/20 01:15:47;;;;;;;9.87;4.27;;;;;;;;;;5136725;27;21015;-69
2022/06/20 01:18:17;;;;;;;4.27;2.90;;;;;;;;;;5136931;27;20534;-69
2022/06/20 01:20:46;;;;;;;8.90;2.80;;;;;;;;;;5137186;27;20427;-69
2022/06/20 01:23:19;;;;;;;8.87;3.03;;;;;;;;;;5136863;27;20438;-69
2022/06/20 01:25:53;;;;;;;12.40;3.60;;;;;;;;;;5137310;27;20603;-69
2022/06/20 01:28:24;;;;;;;8.50;3.40;;;;;;;;;;5137965;27;20441;-69
2022/06/20 01:30:51;;;;;;;8.40;3.07;;;;;;;;;;5136801;27;20911;-69
2022/06/20 01:33:20;;;;;;;15.43;3.30;;;;;;;;;;5136597;27;20434;-69
2022/06/20 01:38:33;;;;;;;11.97;3.40;;;;;;;;;;5136935;27;20403;-69
2022/06/20 01:43:48;;;;;;;5.03;2.43;;;;;;;;;;5136761;27;20406;-69
2022/06/20 01:46:15;;;;;;;4.67;2.60;;;;;;;;;;5136392;27;21010;-69
2022/06/20 01:48:44;;;;;;;8.63;2.90;;;;;;;;;;5136983;27;20505;-69
2022/06/20 01:51:16;;;;;;;9.23;2.60;;;;;;;;;;5136066;27;20557;-69
2022/06/20 01:53:43;;;;;;;7.50;2.83;;;;;;;;;;5136286;27;20518;-69
2022/06/20 01:56:11;;;;;;;10.00;3.47;;;;;;;;;;5136695;27;20808;-69
2022/06/20 01:58:39;;;;;;;9.90;3.50;;;;;;;;;;5136997;27;20434;-69
2022/06/20 02:01:08;;;;;;;5.00;3.20;;;;;;;;;;5136487;27;20474;-69
2022/06/20 02:03:36;;;;;;;7.40;2.77;;;;;;;;;;5136216;27;20444;-69
2022/06/20 02:06:04;;;;;;;4.80;3.27;;;;;;;;;;5136474;27;20453;-69
2022/06/20 02:08:32;;;;;;;7.90;3.17;;;;;;;;;;5136219;27;20516;-69
2022/06/20 02:11:03;;;;;;;5.03;3.10;;;;;;;;;;5136114;27;20992;-69
2022/06/20 02:13:31;;;;;;;7.40;3.60;;;;;;;;;;5135878;27;20462;-69
2022/06/20 02:16:00;;;;;;;5.77;2.50;;;;;;;;;;5135758;27;20935;-69
2022/06/20 02:18:30;;;;;;;10.00;2.80;;;;;;;;;;5136539;27;20529;-69
2022/06/20 02:20:59;;;;;;;9.20;3.20;;;;;;;;;;5136174;27;20472;-69
2022/06/20 02:23:28;;;;;;;10.43;3.10;;;;;;;;;;5135626;27;20485;-69
2022/06/20 02:25:56;;;;;;;8.00;3.07;;;;;;;;;;5134976;27;20542;-69
2022/06/20 02:28:27;;;;;;;12.40;3.30;;;;;;;;;;5135928;27;20521;-69
2022/06/20 02:30:55;;;;;;;9.80;3.07;;;;;;;;;;5135740;27;20431;-69
2022/06/20 02:33:25;;;;;;;11.37;3.47;;;;;;;;;;5135773;27;20521;-69
2022/06/20 02:35:54;;;;;;;6.80;3.07;;;;;;;;;;5135337;27;20462;-69
2022/06/20 02:38:22;;;;;;;7.90;3.27;;;;;;;;;;5135378;27;20544;-69
2022/06/20 02:40:49;;;;;;;5.33;2.90;;;;;;;;;;5135256;27;20534;-69
2022/06/20 02:43:19;;;;;;;5.17;3.33;;;;;;;;;;5135287;27;20534;-69
2022/06/20 02:45:47;;;;;;;8.27;3.10;;;;;;;;;;5135433;27;20481;-69
2022/06/20 02:48:15;;;;;;;5.20;2.97;;;;;;;;;;5135617;27;20534;-69
2022/06/20 02:50:44;;;;;;;8.47;3.10;;;;;;;;;;5135542;27;20553;-69
2022/06/20 02:53:15;;;;;;;5.10;3.63;;;;;;;;;;5135082;27;20447;-69
2022/06/20 02:55:43;;;;;;;8.13;3.10;;;;;;;;;;5135276;27;20554;-69
2022/06/20 02:58:13;;;;;;;5.93;3.30;;;;;;;;;;5135746;27;20518;-69
2022/06/20 03:00:43;;;;;;;7.70;3.07;;;;;;;;;;5135024;27;20518;-69
2022/06/20 03:03:12;;;;;;;4.53;2.83;;;;;;;;;;5135468;27;20434;-69
2022/06/20 03:05:40;;;;;;;8.33;3.87;;;;;;;;;;5135187;27;20444;-69
2022/06/20 03:08:07;;;;;;;9.57;3.37;;;;;;;;;;5135050;27;20439;-69
2022/06/20 03:10:37;;;;;;;18.70;4.20;;;;;;;;;;5135052;27;20866;-69
2022/06/20 03:13:05;;;;;;;8.03;4.60;;;;;;;;;;5134660;27;20517;-69
2022/06/20 03:15:33;;;;;;;7.33;3.50;;;;;;;;;;5134628;27;20634;-69
2022/06/20 03:18:00;;;;;;;10.80;3.30;;;;;;;;;;5134703;27;20487;-69
2022/06/20 03:20:28;;;;;;;6.47;3.50;;;;;;;;;;5134981;27;20443;-69
2022/06/20 03:22:59;;;;;;;11.13;3.90;;;;;;;;;;5134790;27;20485;-69
2022/06/20 03:25:26;;;;;;;8.23;3.67;;;;;;;;;;5135219;27;20490;-69
2022/06/20 03:27:55;;;;;;;6.73;3.63;;;;;;;;;;5134469;27;20926;-70
2022/06/20 03:30:28;;;;;;;8.20;3.17;;;;;;;;;;5134516;27;20537;-69
2022/06/20 03:32:56;;;;;;;7.80;3.70;;;;;;;;;;5134461;27;20469;-69
2022/06/20 03:35:26;;;;;;;7.23;3.40;;;;;;;;;;5134797;27;20478;-69
2022/06/20 03:37:53;;;;;;;8.50;4.77;;;;;;;;;;5134263;27;20442;-69
2022/06/20 03:40:20;;;;;;;7.50;3.73;;;;;;;;;;5134351;27;20433;-68
2022/06/20 03:42:48;;;;;;;10.13;3.40;;;;;;;;;;5134446;27;20473;-69
2022/06/20 03:45:17;;;;;;;10.23;3.07;;;;;;;;;;5135029;27;20517;-69
2022/06/20 03:47:46;;;;;;;11.63;4.60;;;;;;;;;;5134465;27;20542;-69
2022/06/20 03:50:15;;;;;;;7.17;3.47;;;;;;;;;;5134086;28;20556;-75
2022/06/20 03:52:47;;;;;;;12.87;4.27;;;;;;;;;;5134155;28;20910;-68
2022/06/20 03:55:19;;;;;;;7.87;3.73;;;;;;;;;;5134731;28;20558;-68
2022/06/20 03:57:49;;;;;;;10.53;3.93;;;;;;;;;;5134861;28;20453;-68
2022/06/20 04:00:19;;;;;;;14.67;3.33;;;;;;;;;;5134624;28;20518;-68
2022/06/20 04:02:49;;;;;;;7.63;3.60;;;;;;;;;;5134644;28;20497;-68
2022/06/20 04:05:20;;;;;;;12.00;3.93;;;;;;;;;;5134905;28;20453;-68
2022/06/20 04:07:51;;;;;;;10.83;3.80;;;;;;;;;;5134073;28;20506;-69
2022/06/20 04:13:06;;;;;;;8.13;4.37;;;;;;;;;;5120230;28;20508;-68
2022/06/20 04:15:35;;;;;;;10.33;4.20;;;;;;;;;;5134111;28;20556;-69
2022/06/20 04:20:51;;;;;;;10.73;4.80;;;;;;;;;;5133988;28;20393;-68
2022/06/20 04:23:20;;;;;;;11.53;4.37;;;;;;;;;;5134083;28;20498;-68
2022/06/20 04:25:52;;;;;;;8.10;4.93;;;;;;;;;;5133875;28;20861;-69
2022/06/20 04:28:23;;;;;;;10.50;4.40;;;;;;;;;;5133909;28;20434;-69
2022/06/20 04:30:54;;;;;;;7.93;3.80;;;;;;;;;;5133712;28;20477;-69
2022/06/20 04:33:25;;;;;;;10.77;3.97;;;;;;;;;;5134271;28;20459;-68
2022/06/20 04:35:55;;;;;;;9.90;3.50;;;;;;;;;;5133760;28;20470;-69
2022/06/20 04:38:25;;;;;;;5.97;3.67;;;;;;;;;;5134003;28;20429;-68
2022/06/20 04:40:56;;;;;;;8.30;3.10;;;;;;;;;;5113059;28;20481;-69
2022/06/20 04:43:25;;;;;;;11.40;3.33;;;;;;;;;;5113395;28;20436;-69
2022/06/20 04:45:59;;;;;;;8.77;3.47;;;;;;;;;;5113419;28;20450;-69
2022/06/20 04:48:27;;;;;;;9.97;3.60;;;;;;;;;;5113066;28;20461;-68
2022/06/20 04:50:56;;;;;;;9.03;3.50;;;;;;;;;;5117042;28;20517;-68
2022/06/20 04:53:25;;;;;;;6.90;3.50;;;;;;;;;;5116801;28;20435;-68
2022/06/20 04:55:52;;;;;;;8.53;3.87;;;;;;;;;;5116663;28;21071;-68
2022/06/20 04:58:23;;;;;;;4.33;3.60;;;;;;;;;;5116712;28;21050;-68
2022/06/20 05:00:52;;;;;;;10.30;3.40;;;;;;;;;;5116890;28;20474;-68
2022/06/20 05:03:23;;;;;;;12.43;3.80;;;;;;;;;;5116973;28;20856;-68
2022/06/20 05:05:52;;;;;;;5.43;3.30;;;;;;;;;;5117289;28;20427;-68
2022/06/20 05:08:25;;;;;;;9.07;3.53;;;;;;;;;;5116544;28;20435;-68
2022/06/20 05:10:55;;;;;;;3.57;2.70;;;;;;;;;;5116666;28;20427;-68
2022/06/20 05:13:24;;;;;;;7.10;3.00;;;;;;;;;;5115939;28;20424;-69
2022/06/20 05:15:52;;;;;;;4.70;2.57;;;;;;;;;;5114718;28;20517;-68
2022/06/20 05:18:25;;;;;;;12.60;4.10;;;;;;;;;;5115369;28;20443;-66
2022/06/20 05:20:54;;;;;;;16.97;3.47;;;;;;;;;;5116023;28;20510;-66
2022/06/20 05:23:25;;;;;;;15.37;8.70;;;;;;;;;;5116178;28;20442;-65
2022/06/20 05:25:53;;;;;;;10.00;3.80;;;;;;;;;;5116259;28;20435;-64
2022/06/20 05:28:21;;;;;;;6.80;2.90;;;;;;;;;;5116034;28;20474;-65
2022/06/20 05:30:48;;;;;;;11.90;3.37;;;;;;;;;;5116162;28;20442;-65
2022/06/20 05:33:19;;;;;;;6.93;3.80;;;;;;;;;;5116390;28;20521;-66
2022/06/20 05:35:49;;;;;;;12.07;4.67;;;;;;;;;;5116745;28;20468;-65
2022/06/20 05:38:20;;;;;;;12.27;3.70;;;;;;;;;;5116287;28;21018;-65
2022/06/20 05:40:48;;;;;;;6.73;2.90;;;;;;;;;;5116376;28;20507;-66
2022/06/20 05:43:19;;;;;;;9.53;2.90;;;;;;;;;;5115838;28;20481;-65
2022/06/20 05:45:47;;;;;;;4.10;2.50;;;;;;;;;;5116405;28;20460;-65
2022/06/20 05:48:14;;;;;;;7.13;2.80;;;;;;;;;;5116414;28;20465;-66
2022/06/20 05:50:46;;;;;;;9.60;2.97;;;;;;;;;;5116093;28;20478;-65
2022/06/20 05:53:16;;;;;;;5.90;2.70;;;;;;;;;;5116527;28;20432;-66
2022/06/20 05:55:45;;;;;;;7.87;3.37;;;;;;;;;;5115681;28;20458;-65
2022/06/20 05:58:17;;;;;;;4.50;2.60;;;;;;;;;;5115575;28;20478;-66
2022/06/20 06:00:44;;;;;;;6.30;2.77;;;;;;;;;;5116373;28;20498;-65
2022/06/20 06:03:15;;;;;;;6.67;3.60;;;;;;;;;;5116120;28;20474;-65
2022/06/20 06:05:44;;;;;;;7.20;2.83;;;;;;;;;;5115592;28;20428;-65
2022/06/20 06:08:14;;;;;;;8.97;3.00;;;;;;;;;;5115787;28;20530;-65
2022/06/20 06:10:45;;;;;;;11.00;3.37;;;;;;;;;;5115679;28;20542;-65
2022/06/20 06:13:19;;;;;;;8.00;2.60;;;;;;;;;;5115583;28;20931;-65
2022/06/20 06:18:34;;;;;;;11.93;2.87;;;;;;;;;;5114769;28;20906;-65
2022/06/20 06:21:02;;;;;;;7.47;2.57;;;;;;;;;;5115712;28;20479;-65
2022/06/20 06:23:29;;;;;;;9.17;2.83;;;;;;;;;;5115414;28;20770;-65
2022/06/20 06:25:58;;;;;;;3.67;2.53;;;;;;;;;;5115135;28;20439;-65
2022/06/20 06:28:27;;;;;;;8.10;3.00;;;;;;;;;;5115387;28;20878;-65
2022/06/20 06:30:56;;;;;;;5.03;2.90;;;;;;;;;;5115261;28;20502;-65
2022/06/20 06:33:27;;;;;;;5.33;2.63;;;;;;;;;;5115190;28;20531;-65
2022/06/20 06:35:57;;;;;;;10.43;2.90;;;;;;;;;;5115084;28;20986;-65
2022/06/20 06:38:28;;;;;;;15.27;4.03;;;;;;;;;;5115638;28;20991;-65
2022/06/20 06:40:57;;;;;;;7.10;2.50;;;;;;;;;;5114815;28;20934;-65
2022/06/20 06:43:28;;;;;;;4.20;2.47;;;;;;;;;;5114748;28;20450;-65
2022/06/20 06:45:57;;;;;;;6.30;2.60;;;;;;;;;;5114766;28;20434;-66
2022/06/20 06:48:28;;;;;;;4.93;2.60;;;;;;;;;;5114547;28;20541;-66
2022/06/20 06:50:57;;;;;;;9.00;2.60;;;;;;;;;;5114945;28;20509;-65
2022/06/20 06:53:26;;;;;;;6.77;3.03;;;;;;;;;;5114577;28;20439;-65
2022/06/20 06:55:57;;;;;;;9.87;2.90;;;;;;;;;;5114654;28;20475;-65
2022/06/20 06:58:27;;;;;;;8.80;2.90;;;;;;;;;;5114532;28;20432;-65
2022/06/20 07:00:57;;;;;;;11.13;3.37;;;;;;;;;;5114266;28;20928;-66
2022/06/20 07:03:27;;;;;;;9.83;2.70;;;;;;;;;;5114597;28;20438;-66
2022/06/20 07:05:56;;;;;;;11.23;3.27;;;;;;;;;;5114299;28;20940;-66
2022/06/20 07:08:24;;;;;;;7.07;3.03;;;;;;;;;;5114640;28;20526;-65
2022/06/20 07:10:55;;;;;;;6.57;3.30;;;;;;;;;;5114597;28;20467;-66
2022/06/20 07:13:24;;;;;;;6.67;3.00;;;;;;;;;;5114221;28;20427;-66
2022/06/20 07:15:55;;;;;;;5.77;3.20;;;;;;;;;;5114301;28;20483;-65
2022/06/20 07:18:29;;;;;;;5.90;3.40;;;;;;;;;;5114155;28;20882;-65
2022/06/20 07:20:56;;;;;;;5.17;3.43;;;;;;;;;;5114089;28;20512;-65
2022/06/20 07:23:23;;;;;;;7.73;3.90;;;;;;;;;;5114039;28;20789;-65
2022/06/20 07:25:52;;;;;;;8.77;3.13;;;;;;;;;;5113973;28;20475;-66
2022/06/20 07:28:25;;;;;;;8.07;3.87;;;;;;;;;;5114281;28;20526;-65
2022/06/20 07:30:54;;;;;;;7.93;3.80;;;;;;;;;;5113982;28;20477;-65
2022/06/20 07:33:25;;;;;;;7.97;4.00;;;;;;;;;;5114147;28;20442;-65
2022/06/20 07:35:55;;;;;;;4.30;3.20;;;;;;;;;;5114277;28;20557;-65
2022/06/20 07:38:24;;;;;;;9.10;3.60;;;;;;;;;;5114176;28;20499;-65
2022/06/20 07:40:54;;;;;;;10.40;3.20;;;;;;;;;;5114027;28;20526;-65
2022/06/20 07:43:25;;;;;;;5.37;2.60;;;;;;;;;;5114547;28;20458;-64
2022/06/20 07:45:55;;;;;;;5.17;2.47;;;;;;;;;;5114070;28;20482;-65
2022/06/20 07:48:25;;;;;;;6.50;2.57;;;;;;;;;;5114394;28;20443;-65
2022/06/20 07:50:54;;;;;;;8.03;3.00;;;;;;;;;;5114088;28;20466;-65
2022/06/20 07:53:23;;;;;;;11.93;2.90;;;;;;;;;;5113651;28;21036;-64
2022/06/20 07:55:52;;;;;;;2.60;2.40;;;;;;;;;;5113771;28;20474;-64
2022/06/20 07:58:22;;;;;;;5.83;2.40;;;;;;;;;;5113992;28;20432;-64
2022/06/20 08:00:51;;;;;;;6.20;2.80;;;;;;;;;;5113808;28;20445;-64
2022/06/20 08:03:24;;;;;;;5.50;2.60;;;;;;;;;;5113849;28;20433;-64
2022/06/20 08:05:55;;;;;;;2.90;2.07;;;;;;;;;;5114178;28;20526;-65
2022/06/20 08:08:26;;;;;;;7.53;2.10;;;;;;;;;;5114327;28;20423;-65
2022/06/20 08:10:58;;;;;;;3.70;1.90;;;;;;;;;;5114138;28;20424;-66
2022/06/20 08:13:27;;;;;;;5.37;2.37;;;;;;;;;;5119863;28;20444;-65
2022/06/20 08:15:58;;;;;;;5.33;2.57;;;;;;;;;;5133527;28;21064;-65
2022/06/20 08:18:27;;;;;;;3.43;2.17;;;;;;;;;;5134854;28;20468;-65
2022/06/20 08:20:57;;;;;;;6.03;2.53;;;;;;;;;;5133602;28;20466;-65
2022/06/20 08:23:27;;;;;;;6.30;2.37;;;;;;;;;;5134666;27;20438;-66
2022/06/20 08:25:56;;;;;;;5.70;2.40;;;;;;;;;;5138496;27;20512;-65
2022/06/20 08:28:27;;;;;;;3.90;2.00;;;;;;;;;;5138521;27;20431;-65
2022/06/20 08:30:55;;;;;;;6.40;2.20;;;;;;;;;;5138724;27;20449;-65
2022/06/20 08:33:25;;;;;;;8.33;3.33;;;;;;;;;;5138091;27;20520;-65
2022/06/20 08:35:56;;;;;;;8.13;2.40;;;;;;;;;;5137933;27;20556;-65
2022/06/20 08:38:28;;;;;;;4.80;1.93;;;;;;;;;;5138286;27;20448;-65
2022/06/20 08:41:12;;;;;;;4.17;2.20;;;;;;;;;;5138224;27;20433;-65
2022/06/20 08:43:47;;;;;;;3.20;1.97;;;;;;;;;;5138021;27;20414;-66
2022/06/20 08:46:32;;;;;;;4.50;2.07;;;;;;;;;;5137658;27;20978;-65
2022/06/20 08:49:17;;;;;;;3.83;1.97;;;;;;;;;;5137528;27;20441;-66
2022/06/20 08:54:53;;;;;;;4.27;2.40;;;;;;;;;;5137468;27;20426;-66
2022/06/20 08:57:26;;;;;;;3.40;1.80;;;;;;;;;;5137822;27;20468;-66
2022/06/20 09:00:03;;;;;;;4.90;2.33;;;;;;;;;;5137835;27;20781;-66
2022/06/20 09:02:38;;;;;;;2.57;1.87;;;;;;;;;;5137646;27;20426;-66
2022/06/20 09:05:18;;;;;;;2.87;2.10;;;;;;;;;;5137333;27;20431;-66
2022/06/20 09:08:09;;;;;;;4.23;2.17;;;;;;;;;;5137580;27;20426;-66
2022/06/20 09:10:50;;;;;;;7.63;2.07;;;;;;;;;;5137719;27;20456;-66
2022/06/20 09:13:39;;;;;;;3.20;2.00;;;;;;;;;;5137502;27;20505;-65
2022/06/20 09:16:11;;;;;;;2.60;2.40;;;;;;;;;;5137388;27;20939;-65
2022/06/20 09:18:45;;;;;;;7.00;2.10;;;;;;;;;;5137929;27;20915;-65
2022/06/20 09:21:16;;;;;;;4.20;2.30;;;;;;;;;;5137288;27;20454;-65
2022/06/20 09:23:58;;;;;;;10.07;2.47;;;;;;;;;;5137265;27;20479;-65
2022/06/20 09:26:30;;;;;;;4.50;2.13;;;;;;;;;;5137353;27;20861;-65
2022/06/20 09:29:15;;;;;;;3.43;2.17;;;;;;;;;;5137412;27;20518;-65
2022/06/20 09:31:53;;;;;;;6.00;2.00;;;;;;;;;;5136728;27;21021;-65
2022/06/20 09:34:32;;;;;;;3.53;2.47;;;;;;;;;;5137305;27;20501;-65
2022/06/20 09:37:19;;;;;;;5.33;2.30;;;;;;;;;;5137078;27;20466;-65
2022/06/20 09:39:51;;;;;;;4.10;2.30;;;;;;;;;;5137052;27;20509;-65
2022/06/20 09:42:24;;;;;;;8.37;3.23;;;;;;;;;;5136902;27;20454;-66
2022/06/20 09:44:56;;;;;;;6.57;2.63;;;;;;;;;;5136581;27;20501;-65
2022/06/20 09:47:35;;;;;;;2.77;2.37;;;;;;;;;;5136888;27;20503;-65
2022/06/20 09:50:17;;;;;;;4.10;2.80;;;;;;;;;;5136147;27;21166;-65
2022/06/20 09:52:49;;;;;;;6.33;2.67;;;;;;;;;;5136829;27;20454;-65
2022/06/20 09:55:21;;;;;;;4.30;2.30;;;;;;;;;;5136814;27;20426;-66
2022/06/20 09:57:54;;;;;;;3.83;2.20;;;;;;;;;;5136118;27;20461;-65
2022/06/20 10:00:22;;;;;;;4.17;2.30;;;;;;;;;;5136263;27;20517;-65
2022/06/20 10:02:59;;;;;;;2.60;2.00;;;;;;;;;;5136022;27;20448;-65
2022/06/20 10:05:32;;;;;;;7.33;3.03;;;;;;;;;;5136688;27;20438;-66
2022/06/20 10:08:03;;;;;;;4.50;2.50;;;;;;;;;;5135967;27;20430;-66
2022/06/20 10:10:32;;;;;;;3.50;2.30;;;;;;;;;;5136667;27;20554;-65
2022/06/20 10:13:05;;;;;;;5.37;2.70;;;;;;;;;;5136159;27;20472;-66
2022/06/20 10:15:37;;;;;;;2.60;2.30;;;;;;;;;;5136525;27;20426;-66
2022/06/20 10:18:08;;;;;;;4.27;2.77;;;;;;;;;;5136321;27;20884;-65
2022/06/20 10:20:41;;;;;;;4.43;2.20;;;;;;;;;;5136694;27;20502;-66
2022/06/20 10:23:18;;;;;;;5.73;3.27;;;;;;;;;;5135762;27;20424;-66
2022/06/20 10:25:56;;;;;;;3.87;2.63;;;;;;;;;;5136805;27;20772;-65
2022/06/20 10:28:32;;;;;;;5.93;2.33;;;;;;;;;;5136002;27;20431;-65
2022/06/20 10:31:06;;;;;;;3.87;2.17;;;;;;;;;;5135951;27;20462;-65
2022/06/20 10:33:36;;;;;;;2.43;2.23;;;;;;;;;;5135963;27;20459;-65
2022/06/20 10:36:13;;;;;;;5.10;2.40;;;;;;;;;;5135686;27;20805;-65
2022/06/20 10:38:41;;;;;;;5.53;2.73;;;;;;;;;;5135543;27;20456;-66
2022/06/20 10:41:10;;;;;;;3.03;2.10;;;;;;;;;;5135672;27;20494;-65
2022/06/20 10:43:47;;;;;;;4.07;2.60;;;;;;;;;;5135208;27;20528;-65
2022/06/20 10:46:18;;;;;;;4.03;2.80;;;;;;;;;;5135105;27;20427;-65
2022/06/20 10:48:51;;;;;;;2.77;2.27;;;;;;;;;;5135834;27;20450;-65
2022/06/20 10:51:22;;;;;;;4.30;3.03;;;;;;;;;;5135052;27;20561;-65
2022/06/20 10:53:55;;;;;;;6.10;2.70;;;;;;;;;;5135074;27;20513;-65
2022/06/20 10:56:24;;;;;;;6.10;3.70;;;;;;;;;;5135350;27;20920;-65
2022/06/20 10:58:59;;;;;;;3.67;2.60;;;;;;;;;;5135266;27;20444;-65
2022/06/20 11:01:30;;;;;;;6.27;3.50;;;;;;;;;;5135258;27;20524;-65
2022/06/20 11:04:28;;;;;;;9.40;3.10;;;;;;;;;;5135384;27;20846;-65
2022/06/20 11:07:01;;;;;;;3.57;2.60;;;;;;;;;;5031625;28;20962;-65
2022/06/20 11:09:35;;;;;;;4.10;2.80;;;;;;;;;;5116426;27;20799;-66
2022/06/20 11:12:07;;;;;;;4.63;3.40;;;;;;;;;;5135293;27;20420;-66
2022/06/20 11:14:40;;;;;;;2.83;2.63;;;;;;;;;;5135117;27;20509;-65
2022/06/20 11:17:15;;;;;;;4.47;2.90;;;;;;;;;;5135262;27;21042;-66
2022/06/20 11:19:47;;;;;;;4.73;2.80;;;;;;;;;;5134371;27;20430;-65
2022/06/20 11:22:32;;;;;;;5.40;3.60;;;;;;;;;;5135012;27;20428;-66
2022/06/20 11:25:03;;;;;;;5.87;2.97;;;;;;;;;;5135747;27;20569;-66
2022/06/20 11:27:38;;;;;;;3.70;3.07;;;;;;;;;;5135466;27;20446;-66
2022/06/20 11:30:11;;;;;;;7.00;3.10;;;;;;;;;;5135234;27;20533;-66
2022/06/20 11:32:44;;;;;;;4.70;3.57;;;;;;;;;;5135556;27;20769;-66
2022/06/20 11:35:25;;;;;;;6.60;3.30;;;;;;;;;;5135399;27;20833;-66
2022/06/20 11:38:02;;;;;;;5.03;3.00;;;;;;;;;;5134305;27;20470;-65
2022/06/20 11:40:37;;;;;;;5.10;3.00;;;;;;;;;;5134391;27;20437;-64
2022/06/20 11:43:16;;;;;;;5.60;3.23;;;;;;;;;;5134699;27;20514;-65
2022/06/20 11:45:53;;;;;;;3.37;2.60;;;;;;;;;;5134345;27;20435;-65
2022/06/20 11:48:25;;;;;;;4.47;2.93;;;;;;;;;;5134998;27;20457;-65
2022/06/20 11:50:56;;;;;;;8.77;4.07;;;;;;;;;;5134584;27;20562;-65
2022/06/20 11:53:26;;;;;;;9.60;3.63;;;;;;;;;;5134920;28;20536;-65
2022/06/20 11:55:55;;;;;;;6.30;2.30;;;;;;;;;;5135239;28;20822;-65
2022/06/20 11:58:27;;;;;;;6.00;3.23;;;;;;;;;;5135939;27;20848;-65
2022/06/20 12:01:00;;;;;;;6.33;2.83;;;;;;;;;;5139305;27;20827;-65
2022/06/20 12:03:32;;;;;;;6.67;3.33;;;;;;;;;;5138775;27;20419;-65
2022/06/20 12:06:03;;;;;;;2.93;2.63;;;;;;;;;;5139056;27;20438;-65
2022/06/20 12:08:35;;;;;;;5.13;2.90;;;;;;;;;;5138915;27;20464;-66
2022/06/20 12:11:04;;;;;;;9.50;2.87;;;;;;;;;;5139399;27;20434;-66
2022/06/20 12:13:40;;;;;;;2.60;2.27;;;;;;;;;;5138692;27;20478;-66
2022/06/20 12:16:17;;;;;;;5.43;2.13;;;;;;;;;;5138421;27;20427;-65
2022/06/20 12:24:51;;;;;;;7.03;2.43;;;;;;;;;;5074905;28;20462;-64
2022/06/20 12:27:19;;;;;;;4.00;2.50;;;;;;;;;;5075053;28;20497;-66
2022/06/20 12:29:48;;;;;;;3.63;2.20;;;;;;;;;;5106984;27;20527;-66
2022/06/20 12:32:18;;;;;;;4.50;2.40;;;;;;;;;;5138720;27;20436;-65
2022/06/20 12:34:49;;;;;;;7.97;2.77;;;;;;;;;;5138061;27;20424;-65
2022/06/20 12:37:19;;;;;;;3.67;2.70;;;;;;;;;;5138113;27;20994;-66
2022/06/20 12:39:49;;;;;;;3.10;2.80;;;;;;;;;;5137639;27;20860;-65
2022/06/20 12:42:20;;;;;;;5.07;2.53;;;;;;;;;;5137790;27;20527;-65
2022/06/20 12:44:53;;;;;;;3.00;2.60;;;;;;;;;;5137610;27;21000;-65
2022/06/20 12:47:39;;;;;;;7.33;2.40;;;;;;;;;;5138157;27;20463;-65
2022/06/20 12:50:16;;;;;;;4.97;2.60;;;;;;;;;;5121436;27;21058;-65
2022/06/20 12:52:50;;;;;;;3.47;2.20;;;;;;;;;;5137906;27;20439;-66
2022/06/20 12:55:20;;;;;;;5.03;2.60;;;;;;;;;;5137241;27;20916;-68
2022/06/20 12:57:55;;;;;;;4.20;2.67;;;;;;;;;;5137629;27;20478;-71
2022/06/20 13:00:31;;;;;;;6.70;2.23;;;;;;;;;;5137635;27;20459;-69
2022/06/20 13:03:28;;;;;;;7.70;2.70;;;;;;;;;;5137748;27;20971;-69
2022/06/20 13:06:04;;;;;;;6.53;2.90;;;;;;;;;;5137164;27;20901;-69
2022/06/20 13:08:40;;;;;;;6.40;2.23;;;;;;;;;;5137992;27;20884;-69
2022/06/20 13:11:13;;;;;;;3.63;2.33;;;;;;;;;;5136481;27;20933;-69
2022/06/20 13:13:53;;;;;;;4.10;2.10;;;;;;;;;;5137208;27;20464;-69
2022/06/20 13:16:24;;;;;;;5.40;3.60;;;;;;;;;;5137102;27;20521;-69
2022/06/20 13:19:02;;;;;;;2.30;2.03;;;;;;;;;;5135602;27;20510;-69
2022/06/20 13:21:34;;;;;;;4.50;2.03;;;;;;;;;;5136763;27;20455;-69
2022/06/20 13:24:10;;;;;;;4.57;2.70;;;;;;;;;;5137148;27;20419;-69
2022/06/20 13:26:41;;;;;;;4.80;2.20;;;;;;;;;;5136900;27;20441;-69
2022/06/20 13:29:20;;;;;;;7.37;2.50;;;;;;;;;;5137170;27;20424;-68
2022/06/20 13:31:52;;;;;;;3.80;2.30;;;;;;;;;;5137100;27;20825;-68
2022/06/20 13:34:20;;;;;;;3.93;2.23;;;;;;;;;;5136656;27;20459;-68
2022/06/20 13:36:53;;;;;;;8.00;2.73;;;;;;;;;;5136822;27;20457;-70
2022/06/20 13:39:24;;;;;;;4.00;2.00;;;;;;;;;;5136789;27;20563;-68
2022/06/20 13:41:53;;;;;;;4.50;2.10;;;;;;;;;;5136819;27;20856;-68
2022/06/20 13:44:29;;;;;;;5.30;2.67;;;;;;;;;;5136556;27;20527;-69
2022/06/20 13:46:58;;;;;;;5.73;2.30;;;;;;;;;;5136508;27;20438;-69
2022/06/20 13:49:28;;;;;;;9.53;2.40;;;;;;;;;;5136120;27;20441;-68
2022/06/20 13:52:00;;;;;;;7.90;2.30;;;;;;;;;;5136780;27;20453;-69
2022/06/20 13:54:30;;;;;;;5.17;1.97;;;;;;;;;;5136513;27;20476;-69
2022/06/20 13:57:03;;;;;;;3.83;2.23;;;;;;;;;;5136706;27;20505;-68
2022/06/20 13:59:40;;;;;;;5.20;2.33;;;;;;;;;;5136613;27;20430;-68
2022/06/20 14:02:22;;;;;;;5.63;2.20;;;;;;;;;;5135988;27;20429;-68
2022/06/20 14:04:49;;;;;;;9.83;2.20;;;;;;;;;;5135717;27;20530;-68
2022/06/20 14:07:23;;;;;;;4.77;2.47;;;;;;;;;;5135918;27;20444;-68
2022/06/20 14:09:53;;;;;;;3.90;2.10;;;;;;;;;;5135891;27;20509;-67
2022/06/20 14:12:23;;;;;;;5.37;2.30;;;;;;;;;;5135846;27;21021;-68
2022/06/20 14:14:52;;;;;;;3.63;1.90;;;;;;;;;;5135812;27;20925;-68
2022/06/20 14:17:21;;;;;;;5.83;2.00;;;;;;;;;;5136197;27;20451;-68
2022/06/20 14:19:49;;;;;;;3.80;2.30;;;;;;;;;;5136046;27;20472;-69
2022/06/20 14:22:22;;;;;;;2.90;2.13;;;;;;;;;;5135729;27;20530;-69
2022/06/20 14:24:52;;;;;;;5.57;2.37;;;;;;;;;;5135767;27;20423;-69
2022/06/20 14:27:21;;;;;;;4.10;2.50;;;;;;;;;;5135598;27;20524;-69
2022/06/20 14:29:55;;;;;;;3.60;2.33;;;;;;;;;;5135490;27;20452;-68
2022/06/20 14:32:24;;;;;;;3.73;2.40;;;;;;;;;;5135433;27;20425;-70
2022/06/20 14:37:42;;;;;;;4.30;1.97;;;;;;;;;;5130395;27;20504;-69
2022/06/20 14:40:13;;;;;;;6.53;2.07;;;;;;;;;;5135380;27;20445;-69
2022/06/20 14:42:43;;;;;;;6.20;2.40;;;;;;;;;;5135293;27;20432;-69
2022/06/20 14:45:14;;;;;;;3.70;2.20;;;;;;;;;;5135215;27;20528;-70
2022/06/20 14:47:48;;;;;;;4.87;2.17;;;;;;;;;;5135234;27;20543;-70
2022/06/20 14:50:16;;;;;;;5.17;2.30;;;;;;;;;;5135075;27;20479;-69
2022/06/20 14:52:47;;;;;;;3.87;2.33;;;;;;;;;;5135279;27;20445;-69
2022/06/20 14:55:21;;;;;;;2.70;2.03;;;;;;;;;;5135632;27;20508;-69
2022/06/20 14:57:51;;;;;;;5.50;2.10;;;;;;;;;;5134842;27;20493;-69
2022/06/20 15:00:20;;;;;;;6.10;2.60;;;;;;;;;;5135186;27;20505;-69
2022/06/20 15:02:51;;;;;;;6.80;2.60;;;;;;;;;;5134628;27;20523;-69
2022/06/20 15:05:23;;;;;;;3.07;2.07;;;;;;;;;;5135244;27;20842;-69
2022/06/20 15:07:52;;;;;;;3.53;2.30;;;;;;;;;;5135054;27;20437;-69
2022/06/20 15:10:24;;;;;;;3.50;2.30;;;;;;;;;;5134578;27;21008;-69
2022/06/20 15:12:53;;;;;;;5.60;2.40;;;;;;;;;;5135073;27;20499;-73
2022/06/20 15:15:25;;;;;;;5.30;2.70;;;;;;;;;;5134990;27;20850;-69
2022/06/20 15:18:00;;;;;;;4.93;2.70;;;;;;;;;;5134858;27;20476;-69
2022/06/20 15:20:31;;;;;;;9.37;2.60;;;;;;;;;;5135062;27;20433;-69
2022/06/20 15:23:02;;;;;;;5.97;2.80;;;;;;;;;;5134456;27;20436;-69
2022/06/20 15:25:33;;;;;;;6.40;2.53;;;;;;;;;;5134802;27;20483;-69
2022/06/20 15:28:05;;;;;;;6.70;2.73;;;;;;;;;;5134639;27;20428;-69
2022/06/20 15:30:35;;;;;;;5.73;2.80;;;;;;;;;;5134855;27;20527;-69